sensor_id;sensor_type;location;lat;lon;timestamp;temperature;humidity
13682;DHT22;6913;49.892;7.936;2022-11-15T00:01:34;7.40;99.90
13682;DHT22;6913;49.892;7.936;2022-11-15T00:04:02;7.40;99.90
13682;DHT22;6913;49.892;7.936;2022-11-15T00:06:29;7.30;99.90
13682;DHT22;6913;49.892;7.936;2022-11-15T00:08:59;7.30;99.90
13682;DHT22;6913;49.892;7.936;2022-11-15T00:11:26;7.40;99.90
13682;DHT22;6913;49.892;7.936;2022-11-15T00:13:55;7.30;99.90
13682;DHT22;6913;49.892;7.936;2022-11-15T00:16:22;7.30;99.90
13682;DHT22;6913;49.892;7.936;2022-11-15T00:18:49;7.30;99.90
13682;DHT22;6913;49.892;7.936;2022-11-15T00:21:17;7.20;99.90
13682;DHT22;6913;49.892;7.936;2022-11-15T00:23:44;7.50;99.90
13682;DHT22;6913;49.892;7.936;2022-11-15T00:26:14;7.30;99.90
13682;DHT22;6913;49.892;7.936;2022-11-15T00:28:42;7.20;99.90
13682;DHT22;6913;49.892;7.936;2022-11-15T00:31:10;7.00;99.90
13682;DHT22;6913;49.892;7.936;2022-11-15T00:33:38;7.10;99.90
13682;DHT22;6913;49.892;7.936;2022-11-15T00:36:06;7.20;99.90
13682;DHT22;6913;49.892;7.936;2022-11-15T00:38:35;7.10;99.90
13682;DHT22;6913;49.892;7.936;2022-11-15T00:41:03;7.20;99.90
13682;DHT22;6913;49.892;7.936;2022-11-15T00:43:32;7.10;99.90
13682;DHT22;6913;49.892;7.936;2022-11-15T00:45:59;7.10;99.90
13682;DHT22;6913;49.892;7.936;2022-11-15T00:48:27;7.00;99.90
13682;DHT22;6913;49.892;7.936;2022-11-15T00:50:54;7.10;99.90
13682;DHT22;6913;49.892;7.936;2022-11-15T00:53:21;7.10;99.90
13682;DHT22;6913;49.892;7.936;2022-11-15T00:55:48;7.10;99.90
13682;DHT22;6913;49.892;7.936;2022-11-15T00:58:15;7.20;99.90
13682;DHT22;6913;49.892;7.936;2022-11-15T01:00:43;7.50;99.90
13682;DHT22;6913;49.892;7.936;2022-11-15T01:03:10;7.20;99.90
13682;DHT22;6913;49.892;7.936;2022-11-15T01:05:37;7.20;99.90
13682;DHT22;6913;49.892;7.936;2022-11-15T01:08:04;7.20;99.90
13682;DHT22;6913;49.892;7.936;2022-11-15T01:10:31;7.30;99.90
13682;DHT22;6913;49.892;7.936;2022-11-15T01:12:58;7.10;99.90
13682;DHT22;6913;49.892;7.936;2022-11-15T01:15:25;7.10;99.90
13682;DHT22;6913;49.892;7.936;2022-11-15T01:17:53;7.20;99.90
13682;DHT22;6913;49.892;7.936;2022-11-15T01:20:20;7.60;99.90
13682;DHT22;6913;49.892;7.936;2022-11-15T01:22:48;7.40;99.90
13682;DHT22;6913;49.892;7.936;2022-11-15T01:25:15;7.40;99.90
13682;DHT22;6913;49.892;7.936;2022-11-15T01:27:41;7.60;99.90
13682;DHT22;6913;49.892;7.936;2022-11-15T01:30:09;7.40;99.90
13682;DHT22;6913;49.892;7.936;2022-11-15T01:32:36;7.40;99.90
13682;DHT22;6913;49.892;7.936;2022-11-15T01:35:05;7.50;99.90
13682;DHT22;6913;49.892;7.936;2022-11-15T01:37:32;7.60;99.90
13682;DHT22;6913;49.892;7.936;2022-11-15T01:39:59;7.90;99.90
13682;DHT22;6913;49.892;7.936;2022-11-15T01:42:26;7.60;99.90
13682;DHT22;6913;49.892;7.936;2022-11-15T01:44:53;7.40;99.90
13682;DHT22;6913;49.892;7.936;2022-11-15T01:47:22;7.30;99.90
13682;DHT22;6913;49.892;7.936;2022-11-15T01:49:54;7.40;99.90
13682;DHT22;6913;49.892;7.936;2022-11-15T01:52:26;7.40;99.90
13682;DHT22;6913;49.892;7.936;2022-11-15T01:54:58;8.50;99.90
13682;DHT22;6913;49.892;7.936;2022-11-15T01:57:25;7.50;99.90
13682;DHT22;6913;49.892;7.936;2022-11-15T01:59:52;7.70;99.90
13682;DHT22;6913;49.892;7.936;2022-11-15T02:02:20;7.60;99.90
13682;DHT22;6913;49.892;7.936;2022-11-15T02:04:47;7.70;99.90
13682;DHT22;6913;49.892;7.936;2022-11-15T02:07:16;7.40;99.90
13682;DHT22;6913;49.892;7.936;2022-11-15T02:09:46;7.50;99.90
13682;DHT22;6913;49.892;7.936;2022-11-15T02:12:15;8.50;99.90
13682;DHT22;6913;49.892;7.936;2022-11-15T02:14:44;7.60;99.90
13682;DHT22;6913;49.892;7.936;2022-11-15T02:17:26;7.60;99.90
13682;DHT22;6913;49.892;7.936;2022-11-15T02:20:14;7.50;99.90
13682;DHT22;6913;49.892;7.936;2022-11-15T02:22:58;7.60;99.90
13682;DHT22;6913;49.892;7.936;2022-11-15T02:25:40;7.50;99.90
13682;DHT22;6913;49.892;7.936;2022-11-15T02:28:23;7.60;99.90
13682;DHT22;6913;49.892;7.936;2022-11-15T02:31:00;7.50;99.90
13682;DHT22;6913;49.892;7.936;2022-11-15T02:33:36;7.60;99.90
13682;DHT22;6913;49.892;7.936;2022-11-15T02:36:10;7.70;99.90
13682;DHT22;6913;49.892;7.936;2022-11-15T02:38:46;7.70;99.90
13682;DHT22;6913;49.892;7.936;2022-11-15T02:41:19;7.60;99.90
13682;DHT22;6913;49.892;7.936;2022-11-15T02:43:50;7.80;99.90
13682;DHT22;6913;49.892;7.936;2022-11-15T02:46:27;7.70;99.90
13682;DHT22;6913;49.892;7.936;2022-11-15T02:49:10;7.60;99.90
13682;DHT22;6913;49.892;7.936;2022-11-15T02:51:38;7.60;99.90
13682;DHT22;6913;49.892;7.936;2022-11-15T02:54:06;7.50;99.90
13682;DHT22;6913;49.892;7.936;2022-11-15T02:56:33;7.40;99.90
13682;DHT22;6913;49.892;7.936;2022-11-15T02:59:13;7.40;99.90
13682;DHT22;6913;49.892;7.936;2022-11-15T03:01:56;7.60;99.90
13682;DHT22;6913;49.892;7.936;2022-11-15T03:04:37;8.40;99.90
13682;DHT22;6913;49.892;7.936;2022-11-15T03:07:13;7.40;99.90
13682;DHT22;6913;49.892;7.936;2022-11-15T03:09:47;7.50;99.90
13682;DHT22;6913;49.892;7.936;2022-11-15T03:12:20;7.70;99.90
13682;DHT22;6913;49.892;7.936;2022-11-15T03:14:55;7.00;99.90
13682;DHT22;6913;49.892;7.936;2022-11-15T03:17:27;7.40;99.90
13682;DHT22;6913;49.892;7.936;2022-11-15T03:19:56;7.50;99.90
13682;DHT22;6913;49.892;7.936;2022-11-15T03:22:28;7.10;99.90
13682;DHT22;6913;49.892;7.936;2022-11-15T03:24:57;6.80;99.90
13682;DHT22;6913;49.892;7.936;2022-11-15T03:27:28;6.80;99.90
13682;DHT22;6913;49.892;7.936;2022-11-15T03:30:00;7.50;99.90
13682;DHT22;6913;49.892;7.936;2022-11-15T03:32:31;7.40;99.90
13682;DHT22;6913;49.892;7.936;2022-11-15T03:35:04;7.50;99.90
13682;DHT22;6913;49.892;7.936;2022-11-15T03:37:36;7.20;99.90
13682;DHT22;6913;49.892;7.936;2022-11-15T03:40:08;7.20;99.90
13682;DHT22;6913;49.892;7.936;2022-11-15T03:42:41;7.20;99.90
13682;DHT22;6913;49.892;7.936;2022-11-15T03:45:15;7.30;99.90
13682;DHT22;6913;49.892;7.936;2022-11-15T03:47:48;7.60;99.90
13682;DHT22;6913;49.892;7.936;2022-11-15T03:50:18;7.40;99.90
13682;DHT22;6913;49.892;7.936;2022-11-15T03:52:47;7.50;99.90
13682;DHT22;6913;49.892;7.936;2022-11-15T03:55:17;7.40;99.90
13682;DHT22;6913;49.892;7.936;2022-11-15T03:57:45;7.30;99.90
13682;DHT22;6913;49.892;7.936;2022-11-15T04:00:12;7.40;99.90
13682;DHT22;6913;49.892;7.936;2022-11-15T04:02:39;7.50;99.90
13682;DHT22;6913;49.892;7.936;2022-11-15T04:05:08;7.70;99.90
13682;DHT22;6913;49.892;7.936;2022-11-15T04:07:35;7.80;99.90
13682;DHT22;6913;49.892;7.936;2022-11-15T04:10:02;7.70;99.90
13682;DHT22;6913;49.892;7.936;2022-11-15T04:12:29;7.60;99.90
13682;DHT22;6913;49.892;7.936;2022-11-15T04:15:01;7.80;99.90
13682;DHT22;6913;49.892;7.936;2022-11-15T04:17:39;7.50;99.90
13682;DHT22;6913;49.892;7.936;2022-11-15T04:20:10;7.50;99.90
13682;DHT22;6913;49.892;7.936;2022-11-15T04:22:55;7.50;99.90
13682;DHT22;6913;49.892;7.936;2022-11-15T04:25:40;7.60;99.90
13682;DHT22;6913;49.892;7.936;2022-11-15T04:28:07;7.70;99.90
13682;DHT22;6913;49.892;7.936;2022-11-15T04:30:34;7.70;99.90
13682;DHT22;6913;49.892;7.936;2022-11-15T04:33:01;7.60;99.90
13682;DHT22;6913;49.892;7.936;2022-11-15T04:35:30;7.60;99.90
13682;DHT22;6913;49.892;7.936;2022-11-15T04:37:57;7.70;99.90
13682;DHT22;6913;49.892;7.936;2022-11-15T04:40:23;7.70;99.90
13682;DHT22;6913;49.892;7.936;2022-11-15T04:42:50;8.00;99.90
13682;DHT22;6913;49.892;7.936;2022-11-15T04:45:17;7.80;99.90
13682;DHT22;6913;49.892;7.936;2022-11-15T04:47:45;7.80;99.90
13682;DHT22;6913;49.892;7.936;2022-11-15T04:50:12;8.10;99.90
13682;DHT22;6913;49.892;7.936;2022-11-15T04:52:41;7.90;99.90
13682;DHT22;6913;49.892;7.936;2022-11-15T04:55:09;7.70;99.90
13682;DHT22;6913;49.892;7.936;2022-11-15T04:57:37;7.70;99.90
13682;DHT22;6913;49.892;7.936;2022-11-15T05:00:06;7.60;99.90
13682;DHT22;6913;49.892;7.936;2022-11-15T05:02:33;7.50;99.90
13682;DHT22;6913;49.892;7.936;2022-11-15T05:05:18;7.50;99.90
13682;DHT22;6913;49.892;7.936;2022-11-15T05:07:46;7.60;99.90
13682;DHT22;6913;49.892;7.936;2022-11-15T05:10:13;7.60;99.90
13682;DHT22;6913;49.892;7.936;2022-11-15T05:12:41;7.50;99.90
13682;DHT22;6913;49.892;7.936;2022-11-15T05:15:09;7.50;99.90
13682;DHT22;6913;49.892;7.936;2022-11-15T05:17:36;7.40;99.90
13682;DHT22;6913;49.892;7.936;2022-11-15T05:20:03;7.40;99.90
13682;DHT22;6913;49.892;7.936;2022-11-15T05:22:30;7.40;99.90
13682;DHT22;6913;49.892;7.936;2022-11-15T05:24:59;7.20;99.90
13682;DHT22;6913;49.892;7.936;2022-11-15T05:27:26;7.40;99.90
13682;DHT22;6913;49.892;7.936;2022-11-15T05:29:53;7.30;99.90
13682;DHT22;6913;49.892;7.936;2022-11-15T05:32:20;7.30;99.90
13682;DHT22;6913;49.892;7.936;2022-11-15T05:34:47;7.00;99.90
13682;DHT22;6913;49.892;7.936;2022-11-15T05:37:14;7.30;99.90
13682;DHT22;6913;49.892;7.936;2022-11-15T05:39:42;7.10;99.90
13682;DHT22;6913;49.892;7.936;2022-11-15T05:42:12;7.10;99.90
13682;DHT22;6913;49.892;7.936;2022-11-15T05:44:41;7.00;99.90
13682;DHT22;6913;49.892;7.936;2022-11-15T05:47:13;7.10;99.90
13682;DHT22;6913;49.892;7.936;2022-11-15T05:49:42;7.00;99.90
13682;DHT22;6913;49.892;7.936;2022-11-15T05:52:12;7.00;99.90
13682;DHT22;6913;49.892;7.936;2022-11-15T05:54:40;7.00;99.90
13682;DHT22;6913;49.892;7.936;2022-11-15T05:57:07;7.00;99.90
13682;DHT22;6913;49.892;7.936;2022-11-15T05:59:36;7.20;99.90
13682;DHT22;6913;49.892;7.936;2022-11-15T06:02:03;6.90;99.90
13682;DHT22;6913;49.892;7.936;2022-11-15T06:04:30;7.00;99.90
13682;DHT22;6913;49.892;7.936;2022-11-15T06:06:58;6.90;99.90
13682;DHT22;6913;49.892;7.936;2022-11-15T06:09:25;6.90;99.90
13682;DHT22;6913;49.892;7.936;2022-11-15T06:11:52;6.90;99.90
13682;DHT22;6913;49.892;7.936;2022-11-15T06:14:19;7.10;99.90
13682;DHT22;6913;49.892;7.936;2022-11-15T06:16:47;7.00;99.90
13682;DHT22;6913;49.892;7.936;2022-11-15T06:19:14;7.00;99.90
13682;DHT22;6913;49.892;7.936;2022-11-15T06:21:41;7.00;99.90
13682;DHT22;6913;49.892;7.936;2022-11-15T06:24:08;7.20;99.90
13682;DHT22;6913;49.892;7.936;2022-11-15T06:26:35;7.00;99.90
13682;DHT22;6913;49.892;7.936;2022-11-15T06:29:02;7.10;99.90
13682;DHT22;6913;49.892;7.936;2022-11-15T06:31:30;7.30;99.90
13682;DHT22;6913;49.892;7.936;2022-11-15T06:33:58;7.00;99.90
13682;DHT22;6913;49.892;7.936;2022-11-15T06:36:25;7.10;99.90
13682;DHT22;6913;49.892;7.936;2022-11-15T06:38:52;7.10;99.90
13682;DHT22;6913;49.892;7.936;2022-11-15T06:41:18;6.60;99.90
13682;DHT22;6913;49.892;7.936;2022-11-15T06:43:46;7.00;99.90
13682;DHT22;6913;49.892;7.936;2022-11-15T06:46:13;6.70;99.90
13682;DHT22;6913;49.892;7.936;2022-11-15T06:48:40;6.60;99.90
13682;DHT22;6913;49.892;7.936;2022-11-15T06:51:08;6.70;99.90
13682;DHT22;6913;49.892;7.936;2022-11-15T06:53:35;6.60;99.90
13682;DHT22;6913;49.892;7.936;2022-11-15T06:56:04;6.70;99.90
13682;DHT22;6913;49.892;7.936;2022-11-15T06:58:32;6.60;99.90
13682;DHT22;6913;49.892;7.936;2022-11-15T07:00:59;6.60;99.90
13682;DHT22;6913;49.892;7.936;2022-11-15T07:03:26;6.60;99.90
13682;DHT22;6913;49.892;7.936;2022-11-15T07:05:53;7.00;99.90
13682;DHT22;6913;49.892;7.936;2022-11-15T07:08:23;6.70;99.90
13682;DHT22;6913;49.892;7.936;2022-11-15T07:10:50;7.50;99.90
13682;DHT22;6913;49.892;7.936;2022-11-15T07:13:17;6.90;99.90
13682;DHT22;6913;49.892;7.936;2022-11-15T07:15:44;6.90;99.90
13682;DHT22;6913;49.892;7.936;2022-11-15T07:18:11;6.90;99.90
13682;DHT22;6913;49.892;7.936;2022-11-15T07:20:38;7.40;99.90
13682;DHT22;6913;49.892;7.936;2022-11-15T07:23:06;6.90;99.90
13682;DHT22;6913;49.892;7.936;2022-11-15T07:25:34;6.90;99.90
13682;DHT22;6913;49.892;7.936;2022-11-15T07:28:01;8.90;99.90
13682;DHT22;6913;49.892;7.936;2022-11-15T07:30:29;7.30;99.90
13682;DHT22;6913;49.892;7.936;2022-11-15T07:32:57;8.20;99.90
13682;DHT22;6913;49.892;7.936;2022-11-15T07:35:25;7.40;99.90
13682;DHT22;6913;49.892;7.936;2022-11-15T07:37:56;7.30;99.90
13682;DHT22;6913;49.892;7.936;2022-11-15T07:40:24;7.20;99.90
13682;DHT22;6913;49.892;7.936;2022-11-15T07:42:52;7.50;99.90
13682;DHT22;6913;49.892;7.936;2022-11-15T07:45:19;7.70;99.90
13682;DHT22;6913;49.892;7.936;2022-11-15T07:47:51;8.20;99.90
13682;DHT22;6913;49.892;7.936;2022-11-15T07:50:18;7.20;99.90
13682;DHT22;6913;49.892;7.936;2022-11-15T07:52:50;7.30;99.90
13682;DHT22;6913;49.892;7.936;2022-11-15T07:55:22;7.30;99.90
13682;DHT22;6913;49.892;7.936;2022-11-15T07:57:49;7.40;99.90
13682;DHT22;6913;49.892;7.936;2022-11-15T08:00:18;8.80;99.90
13682;DHT22;6913;49.892;7.936;2022-11-15T08:02:46;7.50;99.90
13682;DHT22;6913;49.892;7.936;2022-11-15T08:05:13;9.20;99.90
13682;DHT22;6913;49.892;7.936;2022-11-15T08:07:40;7.60;99.90
13682;DHT22;6913;49.892;7.936;2022-11-15T08:10:08;7.60;99.90
13682;DHT22;6913;49.892;7.936;2022-11-15T08:12:37;6.00;99.90
13682;DHT22;6913;49.892;7.936;2022-11-15T08:15:04;7.60;99.90
13682;DHT22;6913;49.892;7.936;2022-11-15T08:17:33;7.70;99.90
13682;DHT22;6913;49.892;7.936;2022-11-15T08:20:00;7.80;99.90
13682;DHT22;6913;49.892;7.936;2022-11-15T08:22:27;8.00;99.90
13682;DHT22;6913;49.892;7.936;2022-11-15T08:24:54;8.20;99.90
13682;DHT22;6913;49.892;7.936;2022-11-15T08:27:21;8.30;99.90
13682;DHT22;6913;49.892;7.936;2022-11-15T08:29:48;9.30;99.90
13682;DHT22;6913;49.892;7.936;2022-11-15T08:32:16;8.50;99.90
13682;DHT22;6913;49.892;7.936;2022-11-15T08:34:44;8.70;99.90
13682;DHT22;6913;49.892;7.936;2022-11-15T08:37:11;8.80;99.90
13682;DHT22;6913;49.892;7.936;2022-11-15T08:39:38;7.20;99.90
13682;DHT22;6913;49.892;7.936;2022-11-15T08:42:05;9.20;99.90
13682;DHT22;6913;49.892;7.936;2022-11-15T08:44:32;8.70;99.90
13682;DHT22;6913;49.892;7.936;2022-11-15T08:46:59;8.70;99.90
13682;DHT22;6913;49.892;7.936;2022-11-15T08:49:26;8.80;99.90
13682;DHT22;6913;49.892;7.936;2022-11-15T08:51:55;9.00;99.90
13682;DHT22;6913;49.892;7.936;2022-11-15T08:54:22;9.10;99.90
13682;DHT22;6913;49.892;7.936;2022-11-15T08:59:16;9.30;99.90
13682;DHT22;6913;49.892;7.936;2022-11-15T09:01:43;9.30;99.90
13682;DHT22;6913;49.892;7.936;2022-11-15T09:04:10;9.40;99.90
13682;DHT22;6913;49.892;7.936;2022-11-15T09:06:37;9.90;99.90
13682;DHT22;6913;49.892;7.936;2022-11-15T09:18:54;9.70;99.90
13682;DHT22;6913;49.892;7.936;2022-11-15T09:21:21;9.60;99.90
13682;DHT22;6913;49.892;7.936;2022-11-15T09:23:50;9.60;99.90
13682;DHT22;6913;49.892;7.936;2022-11-15T09:26:19;9.60;99.90
13682;DHT22;6913;49.892;7.936;2022-11-15T09:51:51;10.40;99.90
13682;DHT22;6913;49.892;7.936;2022-11-15T09:54:27;10.40;99.90
13682;DHT22;6913;49.892;7.936;2022-11-15T09:56:56;10.30;99.90
13682;DHT22;6913;49.892;7.936;2022-11-15T09:59:52;10.20;99.90
13682;DHT22;6913;49.892;7.936;2022-11-15T10:04:58;10.20;99.90
13682;DHT22;6913;49.892;7.936;2022-11-15T10:50:43;11.00;99.90
13682;DHT22;6913;49.892;7.936;2022-11-15T10:53:18;11.00;99.90
13682;DHT22;6913;49.892;7.936;2022-11-15T10:55:50;11.20;99.90
13682;DHT22;6913;49.892;7.936;2022-11-15T10:58:31;11.30;99.90
13682;DHT22;6913;49.892;7.936;2022-11-15T11:06:09;11.80;99.90
13682;DHT22;6913;49.892;7.936;2022-11-15T11:08:37;11.90;99.90
13682;DHT22;6913;49.892;7.936;2022-11-15T15:47:26;12.40;99.90
